Airfield :
LOGIN :

Register | Disclaimer

   EN    FR    IT 

 










Legend :    VFR   Marginal VFR   IFR   Intensive IFR   Very Intensive IFR
Visi :
Ceiling :
>= 8 km
>= 3000ft
5 to 8 km
1000 to 3000 ft
1500m to 5 km
500 to 1000 ft
800 to 1500m
200 to 500 ft
< 800m
< 200 ft
Symbols :   Thunderstorms  Fog  Heavy snow  Heavy precipitations  Wind > 20 kt
SIGMETs :     Misc.  Thunderstorms  Icing  Turbulence  Mountain Waves  Volcanic Ashes






- Airport Elevation : 45 ft
- IATA code : CEG


EGNR - Hawarden Chester

CURRENT METAR :
  • 161150Z VRB04KT 9999 FEW034 12/M01 Q1032

EXPIRED METARs :
  • 161120Z VRB02KT 9999 FEW034 11/M01 Q1032
  • 161050Z VRB05KT 9999 FEW034 12/00 Q1032
  • 161020Z VRB05KT 9999 FEW038 11/M01 Q1032
  • 160950Z 14007KT 9999 FEW038 10/01 Q1033
  • 160920Z 15006KT 120V190 9999 FEW038 09/01 Q1033

TAF TAF EGNR
Valid from the 16 at 12:00 until the 16 at 18:00 UTC


161100Z 1612/1618 12005KT 9999 FEW045



MET'MAP, your aeronautical weather chart ! - Copyright ORBIFLY December 2007 - Disclaimer

ORBIFLY MET'MAP TEAM :

Programming & Development : Alexandra Zaïnal
Concept & original design : Baudouin d'Aumeries
Assistance for programming : Marc-Olivier Méhu
Technical & hardware support : Manuel Goepfert

Contact : metmap@orbifly.com




SOURCES & CREDITS :

   NOAA